Tottori, Japan
Current Conditions -  °F | °C
As of 9:00 PM on Tuesday 21 Oct 2014 (Local Time) from RJOR Reporting Station
Rain Showers Rain Showers  
Wind Chill: 66°   Ceiling: 4000
Heat Index: 66°   Visibility: 5mi
Dew Point: 63°   Wind: 1mph
Humidity: 88%   Direction: NA
Pressure: 29.91"   Gusts: NA
Location:  35.5°N, 134.24°E
Report Text: RJOR 211200Z VRB01KT 8000 -SHRA FEW005 SCT030 BKN040 19/17 Q1013
Loading
Personal Weather Stations






























Interactive Weather Map
Tropical Storm Tracking
New forecast layout! Learn more

10-Day Weather Forecast

Advertisements
Track Severe Weather on mobile